createdAt,value
2022-08-05T00:00:21.852Z,100449.34
2022-08-05T00:03:27.146Z,100454.31
2022-08-05T00:06:35.797Z,100452.69
2022-08-05T00:09:41.996Z,100451.34
2022-08-05T00:12:56.366Z,100448.52
2022-08-05T00:15:55.879Z,100447.41
2022-08-05T00:18:48.092Z,100445.73
2022-08-05T00:21:54.912Z,100443.24
2022-08-05T00:25:01.189Z,100450.48
2022-08-05T00:28:07.922Z,100443.29
2022-08-05T00:31:15.528Z,100453.97
2022-08-05T00:34:53.951Z,100446.69
2022-08-05T00:37:50.926Z,100441.61
2022-08-05T00:40:36.182Z,100440.17
2022-08-05T00:43:50.072Z,100441.56
2022-08-05T00:46:54.311Z,100441.47
2022-08-05T00:49:58.972Z,100448.30
2022-08-05T00:52:58.790Z,100457.73
2022-08-05T00:55:58.899Z,100453.65
2022-08-05T00:59:06.918Z,100460.36
2022-08-05T01:02:15.020Z,100456.72
2022-08-05T01:05:23.227Z,100458.11
2022-08-05T01:08:41.291Z,100460.76
2022-08-05T01:11:47.320Z,100453.99
2022-08-05T01:15:05.420Z,100452.52
2022-08-05T01:18:15.427Z,100461.20
2022-08-05T01:21:42.706Z,100466.03
2022-08-05T01:25:21.413Z,100462.01
2022-08-05T01:28:57.477Z,100464.59
2022-08-05T01:32:12.379Z,100476.06
2022-08-05T01:35:50.635Z,100470.15
2022-08-05T01:38:30.161Z,100470.30
2022-08-05T01:41:37.679Z,100472.58
2022-08-05T01:44:45.781Z,100486.08
2022-08-05T01:47:54.440Z,100468.78
2022-08-05T01:51:08.703Z,100475.58
2022-08-05T01:54:09.852Z,100482.47
2022-08-05T01:58:10.898Z,100477.97
2022-08-05T02:00:29.894Z,100483.23
2022-08-05T02:03:49.106Z,100475.42
2022-08-05T02:06:56.400Z,100467.56
2022-08-05T02:10:03.608Z,100473.06
2022-08-05T02:13:16.011Z,100471.52
2022-08-05T02:16:41.496Z,100472.75
2022-08-05T02:19:52.277Z,100471.53
2022-08-05T02:23:00.747Z,100470.61
2022-08-05T02:26:05.980Z,100456.16
2022-08-05T02:29:17.311Z,100460.66
2022-08-05T02:32:24.037Z,100462.05
2022-08-05T02:35:37.560Z,100461.72
2022-08-05T02:38:44.122Z,100464.35
2022-08-05T02:42:01.307Z,100459.39
2022-08-05T02:44:58.588Z,100455.02
2022-08-05T02:48:12.577Z,100452.30
2022-08-05T02:51:15.791Z,100457.63
2022-08-05T02:54:35.814Z,100454.61
2022-08-05T02:58:09.653Z,100451.60
2022-08-05T03:00:38.636Z,100456.06
2022-08-05T03:04:02.189Z,100456.92
2022-08-05T03:06:59.534Z,100453.05
2022-08-05T03:10:00.588Z,100458.41
2022-08-05T03:13:09.618Z,100462.57
2022-08-05T03:16:16.741Z,100464.78
2022-08-05T03:19:34.054Z,100465.11
2022-08-05T03:22:32.925Z,100466.50
2022-08-05T03:26:03.505Z,100469.88
2022-08-05T03:28:47.806Z,100477.61
2022-08-05T03:31:57.173Z,100471.82
2022-08-05T03:35:00.761Z,100470.50
2022-08-05T03:38:06.194Z,100481.14
2022-08-05T03:41:11.673Z,100488.71
2022-08-05T03:44:20.219Z,100480.14
2022-08-05T03:47:20.290Z,100479.96
2022-08-05T03:50:07.213Z,100474.55
2022-08-05T03:55:52.265Z,100482.19
2022-08-05T03:56:33.122Z,100483.19
2022-08-05T03:59:54.827Z,100481.42
2022-08-05T04:02:59.221Z,100482.66
2022-08-05T04:06:08.790Z,100486.06
2022-08-05T04:09:20.444Z,100490.67
2022-08-05T04:12:24.958Z,100489.72
2022-08-05T04:15:33.347Z,100487.32
2022-08-05T04:18:39.168Z,100489.15
2022-08-05T04:22:09.546Z,100483.64
2022-08-05T04:25:00.892Z,100487.37
2022-08-05T04:28:12.823Z,100485.50
2022-08-05T04:31:16.412Z,100488.72
2022-08-05T04:34:33.900Z,100491.63
2022-08-05T04:38:02.616Z,100483.63
2022-08-05T04:40:35.917Z,100489.81
2022-08-05T04:43:48.033Z,100492.06
2022-08-05T04:46:48.858Z,100498.97
2022-08-05T04:50:02.733Z,100499.77
2022-08-05T04:53:03.894Z,100494.09
2022-08-05T04:56:33.769Z,100493.78
2022-08-05T04:59:23.949Z,100498.55
2022-08-05T05:02:36.947Z,100494.21
2022-08-05T05:05:34.826Z,100496.92
2022-08-05T05:08:42.970Z,100492.55
2022-08-05T05:11:55.658Z,100490.01
2022-08-05T05:14:57.206Z,100490.38
2022-08-05T05:18:02.711Z,100494.95
2022-08-05T05:21:08.812Z,100495.81
2022-08-05T05:24:15.237Z,100502.09
2022-08-05T05:27:24.449Z,100494.95
2022-08-05T05:30:30.627Z,100503.75
2022-08-05T05:33:17.364Z,100500.22
2022-08-05T05:36:10.526Z,100499.47
2022-08-05T05:39:00.387Z,100495.47
2022-08-05T05:41:55.619Z,100507.67
2022-08-05T05:45:09.782Z,100504.85
2022-08-05T05:48:16.089Z,100499.81
2022-08-05T05:51:22.798Z,100503.98
2022-08-05T05:54:49.976Z,100505.14
2022-08-05T05:57:53.599Z,100505.94
2022-08-05T06:01:12.710Z,100502.83
2022-08-05T06:04:11.341Z,100516.45
2022-08-05T06:07:17.357Z,100514.22
2022-08-05T06:10:29.372Z,100507.15
2022-08-05T06:13:40.924Z,100504.59
2022-08-05T06:16:44.214Z,100504.01
2022-08-05T06:19:56.555Z,100500.50
2022-08-05T06:22:59.225Z,100492.59
2022-08-05T06:26:13.487Z,100501.59
2022-08-05T06:29:43.048Z,100503.03
2022-08-05T06:32:28.835Z,100503.30
2022-08-05T06:36:07.830Z,100507.69
2022-08-05T06:38:52.009Z,100511.03
2022-08-05T06:42:48.701Z,100502.46
2022-08-05T06:46:13.039Z,100504.67
2022-08-05T06:49:21.323Z,100506.47
2022-08-05T06:52:36.989Z,100508.22
2022-08-05T06:55:47.681Z,100510.27
2022-08-05T06:58:58.717Z,100514.86
2022-08-05T07:02:10.645Z,100520.68
2022-08-05T07:05:43.061Z,100520.30
2022-08-05T07:09:04.058Z,100529.17
2022-08-05T07:12:12.633Z,100534.60
2022-08-05T07:16:01.768Z,100529.34
2022-08-05T07:18:48.066Z,100527.67
2022-08-05T07:22:00.778Z,100527.52
2022-08-05T07:25:21.891Z,100528.05
2022-08-05T07:28:17.943Z,100530.86
2022-08-05T07:31:41.123Z,100531.17
2022-08-05T07:34:31.829Z,100521.67
2022-08-05T07:37:39.534Z,100524.98
2022-08-05T07:40:46.007Z,100527.83
2022-08-05T07:43:53.010Z,100529.04
2022-08-05T07:47:00.697Z,100535.55
2022-08-05T07:50:07.786Z,100538.08
2022-08-05T07:53:14.368Z,100539.17
2022-08-05T07:57:00.162Z,100543.02
2022-08-05T07:59:38.591Z,100539.58
2022-08-05T08:03:13.359Z,100547.99
2022-08-05T08:05:50.742Z,100540.52
2022-08-05T08:08:56.628Z,100541.11
2022-08-05T08:12:09.711Z,100543.64
2022-08-05T08:15:15.925Z,100540.84
2022-08-05T08:18:28.237Z,100547.85
2022-08-05T08:21:36.822Z,100543.38
2022-08-05T08:24:51.310Z,100540.88
2022-08-05T08:27:58.628Z,100542.37
2022-08-05T08:31:15.101Z,100543.58
2022-08-05T08:34:30.775Z,100547.82
2022-08-05T08:37:30.338Z,100542.25
2022-08-05T08:40:37.993Z,100545.67
2022-08-05T08:45:18.433Z,100545.77
2022-08-05T08:46:56.276Z,100542.16
2022-08-05T08:50:33.018Z,100537.42
2022-08-05T08:53:23.426Z,100543.94
2022-08-05T08:56:33.501Z,100547.59
2022-08-05T09:00:06.652Z,100551.02
2022-08-05T09:03:16.163Z,100548.55
2022-08-05T09:06:28.038Z,100545.80
2022-08-05T09:09:35.425Z,100547.50
2022-08-05T09:12:42.191Z,100542.14
2022-08-05T09:15:48.874Z,100544.14
2022-08-05T09:18:56.021Z,100542.16
2022-08-05T09:22:22.593Z,100532.56
2022-08-05T09:25:24.069Z,100533.66
2022-08-05T09:28:33.192Z,100537.38
2022-08-05T09:32:41.969Z,100539.34
2022-08-05T09:35:10.628Z,100534.86
2022-08-05T09:38:29.741Z,100524.16
2022-08-05T09:41:40.726Z,100523.56
2022-08-05T09:46:04.865Z,100524.69
2022-08-05T09:48:12.180Z,100522.70
2022-08-05T09:51:23.007Z,100518.17
2022-08-05T09:54:30.178Z,100521.22
2022-08-05T09:57:54.351Z,100505.95
2022-08-05T10:01:32.012Z,100509.61
2022-08-05T10:04:35.070Z,100504.58
2022-08-05T10:08:35.230Z,100502.59
2022-08-05T10:11:15.130Z,100502.53
2022-08-05T10:14:45.945Z,100502.78
2022-08-05T10:17:56.783Z,100492.78
2022-08-05T10:21:06.399Z,100496.59
2022-08-05T10:24:15.116Z,100491.97
2022-08-05T10:27:26.202Z,100501.47
2022-08-05T10:31:20.605Z,100491.30
2022-08-05T10:33:44.651Z,100487.25
2022-08-05T10:36:55.820Z,100485.50
2022-08-05T10:40:17.416Z,100495.80
2022-08-05T10:43:11.179Z,100494.81
2022-08-05T10:46:23.841Z,100494.81
2022-08-05T10:49:32.890Z,100495.92
2022-08-05T10:53:08.409Z,100494.44
2022-08-05T10:56:26.343Z,100488.23
2022-08-05T11:00:02.103Z,100484.25
2022-08-05T11:02:50.514Z,100480.72
2022-08-05T11:06:03.716Z,100479.98
2022-08-05T11:09:45.316Z,100495.50
2022-08-05T11:12:57.629Z,100495.50
2022-08-05T11:16:09.592Z,100502.55
2022-08-05T11:20:10.144Z,100489.77
2022-08-05T11:23:06.003Z,100487.80
2022-08-05T11:26:32.391Z,100490.20
2022-08-05T11:29:54.932Z,100479.22
2022-08-05T11:33:06.964Z,100479.22
2022-08-05T11:36:34.492Z,100477.42
2022-08-05T11:39:55.459Z,100471.11
2022-08-05T11:43:03.275Z,100466.52
2022-08-05T11:46:23.416Z,100464.96
2022-08-05T11:49:28.311Z,100460.31
2022-08-05T11:52:40.809Z,100452.83
2022-08-05T11:55:50.042Z,100449.36
2022-08-05T11:59:00.666Z,100452.61
2022-08-05T12:02:30.015Z,100447.56
2022-08-05T12:05:39.898Z,100444.14
2022-08-05T12:08:49.713Z,100451.70
2022-08-05T12:11:57.429Z,100448.88
2022-08-05T12:15:04.036Z,100460.52
2022-08-05T12:18:10.515Z,100455.30
2022-08-05T12:21:31.855Z,100448.55
2022-08-05T12:24:49.667Z,100465.77
2022-08-05T12:27:57.576Z,100465.83
2022-08-05T12:31:09.235Z,100465.83
2022-08-05T12:34:23.565Z,100469.16
2022-08-05T12:37:29.852Z,100458.40
2022-08-05T12:40:44.117Z,100464.20
2022-08-05T12:44:14.201Z,100475.39
2022-08-05T12:47:22.091Z,100466.05
2022-08-05T12:50:32.832Z,100475.39
2022-08-05T12:53:43.556Z,100473.53
2022-08-05T12:57:04.416Z,100472.13
2022-08-05T13:02:01.240Z,100468.13
2022-08-05T13:03:26.575Z,100485.98
2022-08-05T13:06:36.181Z,100485.98
2022-08-05T13:09:49.091Z,100485.02
2022-08-05T13:12:58.787Z,100488.45
2022-08-05T13:16:10.075Z,100488.45
2022-08-05T13:19:22.388Z,100487.89
2022-08-05T13:22:32.011Z,100487.89
2022-08-05T13:25:52.133Z,100487.13
2022-08-05T13:28:47.693Z,100490.50
2022-08-05T13:32:04.961Z,100492.72
2022-08-05T13:35:11.691Z,100493.83
2022-08-05T13:38:30.911Z,100493.83
2022-08-05T13:41:34.670Z,100485.33
2022-08-05T13:44:45.903Z,100481.34
2022-08-05T13:48:08.723Z,100474.29
2022-08-05T13:51:02.815Z,100474.84
2022-08-05T13:54:13.196Z,100466.68
2022-08-05T13:57:21.469Z,100472.67
2022-08-05T14:00:28.003Z,100479.17
2022-08-05T14:03:36.354Z,100480.28
2022-08-05T14:06:47.770Z,100481.39
2022-08-05T14:09:55.840Z,100485.36
2022-08-05T14:13:03.008Z,100483.61
2022-08-05T14:16:11.459Z,100478.31
2022-08-05T14:19:17.763Z,100478.31
2022-08-05T14:22:24.507Z,100475.84
2022-08-05T14:25:31.810Z,100476.14
2022-08-05T14:28:37.847Z,100471.91
2022-08-05T14:32:02.580Z,100465.75
2022-08-05T14:34:56.823Z,100462.62
2022-08-05T14:38:03.422Z,100462.28
2022-08-05T14:41:10.924Z,100463.09
2022-08-05T14:44:22.011Z,100474.67
2022-08-05T14:48:03.237Z,100475.48
2022-08-05T14:50:40.647Z,100492.08
2022-08-05T14:54:26.637Z,100504.78
2022-08-05T14:56:54.602Z,100508.84
2022-08-05T15:00:00.195Z,100508.84
2022-08-05T15:03:06.413Z,100503.62
2022-08-05T15:06:15.791Z,100499.38
2022-08-05T15:09:51.236Z,100499.38
2022-08-05T15:12:41.039Z,100505.41
2022-08-05T15:15:53.964Z,100497.63
2022-08-05T15:18:51.768Z,100506.71
2022-08-05T15:22:05.125Z,100527.05
2022-08-05T15:25:11.631Z,100551.90
2022-08-05T15:28:27.037Z,100632.43
2022-08-05T15:31:34.913Z,100624.31
2022-08-05T15:34:43.818Z,100619.67
2022-08-05T15:38:31.934Z,100622.73
2022-08-05T15:41:21.307Z,100621.30
2022-08-05T15:44:08.161Z,100624.89
2022-08-05T15:47:17.955Z,100620.16
2022-08-05T15:50:25.212Z,100625.09
2022-08-05T15:53:38.573Z,100657.51
2022-08-05T15:56:41.812Z,100634.69
2022-08-05T15:59:52.873Z,100625.29
2022-08-05T16:02:57.088Z,100616.40
2022-08-05T16:06:06.651Z,100625.25
2022-08-05T16:09:15.762Z,100619.02
2022-08-05T16:12:24.294Z,100620.35
2022-08-05T16:15:32.662Z,100621.16
2022-08-05T16:18:52.805Z,100637.85
2022-08-05T16:21:58.592Z,100660.14
2022-08-05T16:24:59.843Z,100650.81
2022-08-05T16:28:10.299Z,100648.15
2022-08-05T16:31:15.696Z,100642.27
2022-08-05T16:34:27.714Z,100657.17
2022-08-05T16:38:11.986Z,100703.00
2022-08-05T16:40:48.075Z,100690.35
2022-08-05T16:43:56.187Z,100680.65
2022-08-05T16:47:02.200Z,100666.66
2022-08-05T16:50:12.837Z,100656.93
2022-08-05T16:54:02.252Z,100654.24
2022-08-05T16:56:35.053Z,100643.25
2022-08-05T17:00:04.401Z,100639.11
2022-08-05T17:02:49.827Z,100643.16
2022-08-05T17:05:59.697Z,100668.13
2022-08-05T17:09:04.337Z,100685.66
2022-08-05T17:12:09.946Z,100664.83
2022-08-05T17:15:19.901Z,100653.10
2022-08-05T17:18:27.094Z,100665.40
2022-08-05T17:21:36.251Z,100656.34
2022-08-05T17:24:45.416Z,100646.98
2022-08-05T17:27:49.067Z,100651.64
2022-08-05T17:30:56.759Z,100645.16
2022-08-05T17:34:06.500Z,100645.10
2022-08-05T17:37:35.945Z,100632.48
2022-08-05T17:40:24.733Z,100627.11
2022-08-05T17:43:46.788Z,100629.71
2022-08-05T17:46:38.450Z,100641.86
2022-08-05T17:49:56.768Z,100649.00
2022-08-05T17:52:52.979Z,100641.18
2022-08-05T17:55:59.112Z,100641.66
2022-08-05T17:59:06.756Z,100633.22
2022-08-05T18:02:14.069Z,100642.37
2022-08-05T18:05:23.331Z,100648.84
2022-08-05T18:08:29.226Z,100658.46
2022-08-05T18:11:37.477Z,100658.09
2022-08-05T18:14:43.135Z,100662.11
2022-08-05T18:18:00.240Z,100661.75
2022-08-05T18:21:01.784Z,100659.05
2022-08-05T18:24:07.547Z,100656.41
2022-08-05T18:27:18.850Z,100671.70
2022-08-05T18:30:26.367Z,100671.07
2022-08-05T18:33:46.852Z,100666.91
2022-08-05T18:36:43.480Z,100664.59
2022-08-05T18:41:53.784Z,100668.69
2022-08-05T18:43:00.961Z,100657.61
2022-08-05T18:46:07.382Z,100667.87
2022-08-05T18:49:30.332Z,100657.22
2022-08-05T18:52:50.830Z,100652.45
2022-08-05T18:55:54.649Z,100659.94
2022-08-05T18:59:01.007Z,100658.14
2022-08-05T19:02:26.578Z,100659.53
2022-08-05T19:06:05.575Z,100659.47
2022-08-05T19:08:30.520Z,100660.36
2022-08-05T19:12:00.739Z,100669.56
2022-08-05T19:15:00.312Z,100666.68
2022-08-05T19:18:08.441Z,100671.64
2022-08-05T19:21:03.366Z,100672.76
2022-08-05T19:24:12.896Z,100672.84
2022-08-05T19:27:20.568Z,100677.59
2022-08-05T19:30:29.273Z,100677.20
2022-08-05T19:33:38.120Z,100680.13
2022-08-05T19:36:45.607Z,100673.42
2022-08-05T19:39:55.447Z,100675.26
2022-08-05T19:43:05.270Z,100675.16
2022-08-05T19:46:16.878Z,100679.25
2022-08-05T19:49:21.526Z,100682.03
2022-08-05T19:52:30.515Z,100680.23
2022-08-05T19:56:14.384Z,100681.32
2022-08-05T19:58:53.972Z,100679.48
2022-08-05T20:01:52.844Z,100674.22
2022-08-05T20:05:01.308Z,100676.14
2022-08-05T20:08:09.978Z,100672.66
2022-08-05T20:11:19.404Z,100674.80
2022-08-05T20:14:27.017Z,100681.67
2022-08-05T20:17:36.423Z,100683.59
2022-08-05T20:20:42.304Z,100684.44
2022-08-05T20:23:53.289Z,100682.20
2022-08-05T20:26:59.228Z,100678.36
2022-08-05T20:30:05.300Z,100682.53
2022-08-05T20:33:12.809Z,100679.64
2022-08-05T20:36:23.779Z,100684.37
2022-08-05T20:39:35.536Z,100691.39
2022-08-05T20:42:38.045Z,100678.59
2022-08-05T20:45:56.387Z,100682.20
2022-08-05T20:48:56.447Z,100682.76
2022-08-05T20:52:03.081Z,100678.26
2022-08-05T20:55:54.714Z,100678.89
2022-08-05T20:58:20.845Z,100675.25
2022-08-05T21:01:37.555Z,100675.25
2022-08-05T21:04:35.022Z,100678.03
2022-08-05T21:07:50.849Z,100690.45
2022-08-05T21:10:52.072Z,100694.17
2022-08-05T21:13:58.921Z,100691.22
2022-08-05T21:17:06.335Z,100682.59
2022-08-05T21:20:12.798Z,100682.06
2022-08-05T21:23:20.101Z,100678.34
2022-08-05T21:26:29.572Z,100676.96
2022-08-05T21:29:40.735Z,100676.63
2022-08-05T21:32:47.789Z,100680.48
2022-08-05T21:35:58.185Z,100684.55
2022-08-05T21:39:02.042Z,100681.16
2022-08-05T21:42:30.613Z,100680.53
2022-08-05T21:45:38.149Z,100679.67
2022-08-05T21:48:27.077Z,100677.98
2022-08-05T21:52:21.395Z,100677.98
2022-08-05T21:54:44.764Z,100680.00
2022-08-05T21:57:51.642Z,100681.70
2022-08-05T22:00:59.062Z,100685.86
2022-08-05T22:04:05.604Z,100688.63
2022-08-05T22:07:13.549Z,100687.47
2022-08-05T22:10:26.517Z,100684.47
2022-08-05T22:14:19.920Z,100679.55
2022-08-05T22:16:41.928Z,100682.62
2022-08-05T22:19:57.246Z,100676.63
2022-08-05T22:22:14.637Z,100685.29
2022-08-05T22:25:27.473Z,100682.81
2022-08-05T22:28:14.482Z,100680.03
2022-08-05T22:31:09.159Z,100684.84
2022-08-05T22:34:25.594Z,100691.44
2022-08-05T22:37:23.259Z,100683.04
2022-08-05T22:40:31.338Z,100676.85
2022-08-05T22:43:38.173Z,100680.16
2022-08-05T22:46:45.240Z,100683.72
2022-08-05T22:50:20.636Z,100688.41
2022-08-05T22:53:00.506Z,100693.43
2022-08-05T22:56:09.897Z,100685.11
2022-08-05T22:59:45.331Z,100691.70
2022-08-05T23:02:29.732Z,100693.88
2022-08-05T23:05:30.388Z,100704.05
2022-08-05T23:08:38.285Z,100700.63
2022-08-05T23:11:46.650Z,100700.00
2022-08-05T23:14:54.617Z,100705.02
2022-08-05T23:18:03.200Z,100703.30
2022-08-05T23:21:10.422Z,100698.20
2022-08-05T23:24:16.899Z,100702.13
2022-08-05T23:27:24.279Z,100697.45
2022-08-05T23:30:27.076Z,100703.22
2022-08-05T23:34:03.072Z,100697.78
2022-08-05T23:36:40.325Z,100694.63
2022-08-05T23:39:54.177Z,100687.28
2022-08-05T23:42:47.358Z,100691.03
2022-08-05T23:45:53.273Z,100684.54
2022-08-05T23:49:02.111Z,100684.54
2022-08-05T23:52:27.539Z,100686.67
2022-08-05T23:55:33.880Z,100689.67
2022-08-05T23:58:39.937Z,100684.69
